Weather at Tiranë Helicopter Base

Public forecast

Using degrees Celsius for public forecast. Weather courtesy of forecast.io.

Closest aviation weather report (METAR) to Tiranë Helicopter Base

Closest report is Tirana International Airport Mother Teresa, 9.5 nm (17.6 km) NW.

2022/11/27 08:20 (retrieved 15 minutes ago)

LATI 270820Z VRB02KT 9999 BKN120 10/06 Q1021 NOSIG

Closest aviation forecast (TAF) to Tiranë Helicopter Base

Closest forecast is Tirana International Airport Mother Teresa, 9.5 nm (17.6 km) NW.

2022/11/27 06:06 (retrieved 2 hours ago)

TAF LATI 270500Z 2706/2806 VRB05KT 9999 BKN140 TX13/2712Z TN03/2804Z BECMG 2712/2714 BKN050 TEMPO 2718/2806 -SHRA SCT025